Data for 11/27/2008

Time Sea-Level Adjusted Pressure Absolute Pressure Temperature Relative Humidity Dew Point   
(mb) (inHg) (mb) (inHg) (C) (F) (%) (C) (F)
00:05 1023 30.21 852 25.16 -2.1 28.2 70 -6.8 19.8
00:10 1023 30.21 852 25.16 -2.1 28.1 71 -6.7 19.9
00:15 1023 30.21 852 25.16 -2.4 27.7 72 -6.8 19.8
00:20 1023 30.21 852 25.16 -2.7 27.1 73 -6.9 19.5
00:25 1023 30.21 852 25.16 -2.9 26.7 73 -7.1 19.3
00:30 1023 30.21 852 25.16 -2.9 26.7 73 -7.1 19.3
00:35 1023 30.21 852 25.16 -2.8 26.9 73 -7.1 19.3
00:40 1023 30.21 852 25.16 -2.9 26.7 73 -7 19.3
00:45 1023 30.21 852 25.16 -2.8 26.9 73 -7.1 19.3
00:50 1023 30.21 852 25.16 -2.8 26.9 73 -7.1 19.3
00:55 1023 30.21 852 25.16 -2.9 26.7 73 -7.1 19.2
01:00 1023 30.21 852 25.16 -2.8 26.9 73 -7.1 19.3
01:05 1023 30.21 852 25.16 -2.8 27 72 -7.1 19.2
01:10 1023 30.21 852 25.16 -2.8 26.9 73 -7 19.4
01:15 1023 30.21 852 25.16 -3 26.6 73 -7.1 19.2
01:20 1023 30.21 852 25.16 -3.1 26.4 74 -7.1 19.2
01:25 1023 30.21 852 25.16 -3.1 26.4 74 -7.2 19.1
01:30 1023 30.21 852 25.16 -3.1 26.3 74 -7.1 19.2
01:35 1023 30.21 852 25.16 -3.2 26.3 74 -7.1 19.2
01:40 1023 30.21 852 25.16 -3.1 26.3 74 -7.1 19.2
01:45 1023 30.21 852 25.16 -3.2 26.2 75 -7.1 19.2
01:50 1023 30.21 852 25.16 -3.3 26 75 -7.2 19
01:55 1023 30.21 852 25.16 -3.4 25.9 75 -7.2 19.1
02:00 1023 30.21 852 25.16 -3.5 25.7 76 -7.2 19
02:05 1023 30.21 852 25.16 -3.4 25.8 76 -7.2 19.1
02:10 1023 30.21 852 25.16 -3.4 25.8 75 -7.3 18.9
02:15 1023 30.21 852 25.16 -3.5 25.7 77 -7 19.4
02:20 1023 30.21 852 25.16 -3.6 25.5 79 -6.8 19.8
02:25 1023 30.21 852 25.16 -3.4 25.8 76 -7.1 19.1
02:30 1023 30.21 852 25.16 -3.3 26 76 -7 19.4
02:35 1023 30.21 852 25.16 -3.6 25.5 77 -7.1 19.3
02:40 1023 30.21 852 25.16 -3.7 25.3 77 -7.1 19.2
02:45 1023 30.21 852 25.16 -3.7 25.4 77 -7.1 19.3
02:50 1023 30.21 852 25.16 -3.6 25.6 78 -6.9 19.6
02:55 1023 30.21 852 25.16 -3.6 25.5 78 -7 19.5
03:00 1023 30.21 852 25.16 -3.6 25.5 77 -7.1 19.3
03:05 1023 30.21 852 25.16 -3.3 26 76 -7 19.4
03:10 1023 30.21 852 25.16 -3.6 25.6 77 -7 19.4
03:15 1023 30.21 852 25.16 -4 24.7 77 -7.4 18.7
03:20 1023 30.21 852 25.16 -4 24.7 79 -7.1 19.2
03:25 1023 30.21 852 25.16 -4.4 24.1 82 -7.1 19.2
03:30 1022 30.18 852 25.16 -4.4 24.2 80 -7.3 18.8
03:35 1022 30.18 852 25.16 -4.4 24 82 -7.1 19.3
03:40 1022 30.18 852 25.16 -4.6 23.8 84 -6.9 19.6
03:45 1022 30.18 852 25.16 -4.6 23.8 84 -6.9 19.6
03:50 1022 30.18 852 25.16 -4.4 24 84 -6.8 19.7
03:55 1022 30.18 852 25.16 -4.2 24.4 82 -6.9 19.7
04:00 1022 30.18 852 25.16 -4 24.8 82 -6.7 20
04:05 1022 30.18 852 25.16 -3.8 25.1 80 -6.8 19.8
04:10 1022 30.18 852 25.16 -4.1 24.6 81 -6.9 19.6
04:15 1022 30.18 852 25.16 -4.3 24.3 81 -7 19.4
04:20 1022 30.18 852 25.16 -4.1 24.6 81 -6.9 19.5
04:25 1022 30.18 851 25.13 -4 24.7 81 -6.9 19.7
04:30 1022 30.18 851 25.13 -4 24.8 79 -7.2 19
04:35 1022 30.18 851 25.13 -4.3 24.3 82 -7 19.4
04:40 1022 30.18 851 25.13 -4.5 24 82 -7.1 19.3
04:45 1022 30.18 851 25.13 -4.3 24.3 80 -7.3 18.9
04:50 1022 30.18 851 25.13 -4.4 24.2 80 -7.3 18.8
04:55 1022 30.18 851 25.13 -4.4 24.1 80 -7.4 18.6
05:00 1022 30.18 851 25.13 -4.5 23.9 79 -7.6 18.3
05:05 1022 30.18 851 25.13 -5 22.9 80 -8 17.6
05:10 1022 30.18 851 25.13 -5.3 22.5 82 -7.9 17.8
05:15 1022 30.18 851 25.13 -5.3 22.5 81 -8 17.5
05:20 1022 30.18 851 25.13 -5.6 21.8 82 -8.3 17
05:25 1022 30.18 851 25.13 -5.9 21.4 83 -8.3 17.1
05:30 1022 30.18 851 25.13 -5.9 21.5 83 -8.3 17
05:35 1022 30.18 851 25.13 -5.9 21.4 82 -8.5 16.7
05:40 1022 30.18 851 25.13 -5.5 22.1 83 -8 17.5
05:45 1021 30.15 851 25.13 -5.1 22.9 82 -7.6 18.3
05:50 1021 30.15 851 25.13 -5.1 22.9 83 -7.6 18.4
05:55 1021 30.15 851 25.13 -5 23 82 -7.7 18.2
06:00 1021 30.15 851 25.13 -4.8 23.3 81 -7.6 18.3
06:05 1021 30.15 851 25.13 -5 23.1 81 -7.7 18.1
06:10 1021 30.15 851 25.13 -5.1 22.8 81 -7.9 17.8
06:15 1021 30.15 850 25.1 -5.2 22.6 82 -7.8 17.9
06:20 1021 30.15 851 25.13 -5.3 22.5 82 -7.9 17.8
06:25 1021 30.15 850 25.1 -5.4 22.2 82 -8.1 17.4
06:30 1021 30.15 850 25.1 -5.6 21.9 83 -8.1 17.4
06:35 1021 30.15 851 25.13 -5.5 22 82 -8.1 17.4
06:40 1021 30.15 850 25.1 -5.4 22.3 82 -7.9 17.7
06:45 1021 30.15 850 25.1 -5.4 22.2 83 -7.9 17.8
06:50 1021 30.15 850 25.1 -5.4 22.3 83 -7.9 17.8
06:55 1021 30.15 850 25.1 -5.2 22.7 82 -7.8 18
07:00 1021 30.15 850 25.1 -5.1 22.8 82 -7.8 18
07:05 1021 30.15 851 25.13 -5.1 22.9 81 -7.9 17.8
07:10 1021 30.15 850 25.1 -5.3 22.4 81 -8.1 17.5
07:15 1021 30.15 850 25.1 -5.6 21.9 82 -8.2 17.2
07:20 1021 30.15 850 25.1 -5.8 21.5 82 -8.4 16.9
07:25 1021 30.15 850 25.1 -6.2 20.8 83 -8.7 16.3
07:30 1021 30.15 850 25.1 -6.4 20.5 83 -8.8 16.1
07:35 1021 30.15 850 25.1 -6.3 20.7 82 -8.9 16
07:40 1021 30.15 850 25.1 -6.2 20.8 82 -8.7 16.3
07:45 1021 30.15 850 25.1 -6 21.2 82 -8.7 16.4
07:50 1021 30.15 850 25.1 -5.9 21.3 81 -8.7 16.3
07:55 1021 30.15 850 25.1 -6 21.1 82 -8.7 16.4
08:00 1021 30.15 850 25.1 -5.8 21.6 79 -8.8 16.2
08:05 1021 30.15 850 25.1 -5.7 21.7 79 -8.8 16.2
08:10 1021 30.15 850 25.1 -5.7 21.7 79 -8.9 16
08:15 1021 30.15 850 25.1 -6 21.2 80 -8.9 15.9
08:20 1021 30.15 850 25.1 -6.3 20.6 81 -9.1 15.7
08:25 1021 30.15 850 25.1 -5.9 21.4 79 -8.9 15.9
08:30 1021 30.15 850 25.1 -5.4 22.3 79 -8.4 16.8
08:35 1021 30.15 850 25.1 -5.1 22.8 78 -8.3 17.1
08:40 1021 30.15 850 25.1 -4.8 23.3 77 -8.2 17.2
08:45 1021 30.15 850 25.1 -4.5 23.9 76 -8.1 17.5
08:50 1021 30.15 850 25.1 -4.2 24.5 76 -7.8 18
08:55 1021 30.15 850 25.1 -4.1 24.6 75 -7.9 17.8
09:00 1021 30.15 850 25.1 -4.1 24.7 75 -7.8 18
09:05 1021 30.15 850 25.1 -4 24.8 75 -7.9 17.8
09:10 1021 30.15 850 25.1 -3.9 25 75 -7.7 18.1
09:15 1021 30.15 850 25.1 -3.6 25.5 74 -7.7 18.2
09:20 1021 30.15 850 25.1 -3.2 26.3 72 -7.6 18.3
09:25 1021 30.15 850 25.1 -2.7 27.1 70 -7.5 18.5
09:30 1021 30.15 850 25.1 -2.8 26.9 70 -7.5 18.5
09:35 1021 30.15 850 25.1 -2.4 27.7 68 -7.6 18.4
09:40 1021 30.15 850 25.1 -1.7 29 65 -7.4 18.6
09:45 1021 30.15 850 25.1 -1.7 29 66 -7.2 19
09:50 1021 30.15 850 25.1 -1.8 28.8 66 -7.3 18.9
09:55 1021 30.15 850 25.1 -1.5 29.3 65 -7.3 18.9
10:00 1021 30.15 850 25.1 -1 30.1 63 -7.2 19
10:05 1021 30.15 850 25.1 -0.6 31 62 -6.9 19.6
10:10 1021 30.15 850 25.1 -0.5 31.2 62 -7 19.5
10:15 1021 30.15 850 25.1 -0.7 30.8 63 -6.8 19.7
10:20 1021 30.15 850 25.1 -0.3 31.5 60 -7.2 19.1
10:25 1021 30.15 850 25.1 0.1 32.1 61 -6.6 20.1
10:30 1021 30.15 850 25.1 -0.1 31.8 61 -6.7 20
10:35 1021 30.15 850 25.1 0 32 61 -6.6 20.1
10:40 1021 30.15 850 25.1 0.1 32.2 60 -6.7 19.9
10:45 1021 30.15 850 25.1 0.3 32.5 60 -6.5 20.3
10:50 1020 30.12 850 25.1 0.5 32.9 60 -6.5 20.4
10:55 1020 30.12 850 25.1 0.5 32.8 61 -6.2 20.8
11:00 1020 30.12 850 25.1 0.4 32.7 59 -6.7 19.9
11:05 1020 30.12 850 25.1 0.8 33.4 59 -6.4 20.5
11:10 1020 30.12 849 25.07 1.3 34.3 58 -6.1 21.1
11:15 1020 30.12 849 25.07 1.4 34.5 57 -6.2 20.9
11:20 1020 30.12 849 25.07 1.4 34.5 57 -6.3 20.7
11:25 1020 30.12 849 25.07 1.7 35.1 56 -6.2 20.8
11:30 1020 30.12 849 25.07 1.5 34.7 57 -6 21.2
11:35 1020 30.12 849 25.07 1.6 34.9 59 -5.6 21.9
11:40 1020 30.12 849 25.07 1.7 35.1 55 -6.5 20.4
11:45 1020 30.12 849 25.07 2.2 36 55 -6 21.2
11:50 1020 30.12 849 25.07 1.8 35.2 57 -5.9 21.4
11:55 1020 30.12 849 25.07 1.9 35.4 56 -5.9 21.4
12:00 1020 30.12 849 25.07 1.6 34.9 58 -5.8 21.6
12:05 1020 30.12 849 25.07 2.3 36.1 53 -6.2 20.8
12:10 1019 30.09 849 25.07 2.5 36.6 54 -5.9 21.4
12:15 1019 30.09 849 25.07 2.7 36.8 53 -6 21.3
12:20 1019 30.09 849 25.07 2.8 37 54 -5.7 21.8
12:25 1019 30.09 848 25.04 2.2 36 55 -5.8 21.6
12:30 1019 30.09 848 25.04 2.6 36.7 55 -5.5 22.1
12:35 1019 30.09 848 25.04 2.4 36.4 54 -5.8 21.5
12:40 1019 30.09 848 25.04 1.4 34.5 59 -5.8 21.5
12:45 1019 30.09 848 25.04 1.9 35.4 56 -6 21.2
12:50 1019 30.09 848 25.04 2.2 35.9 55 -6 21.2
12:55 1019 30.09 848 25.04 2.8 37 53 -5.8 21.6
13:00 1019 30.09 848 25.04 1.9 35.3 58 -5.6 21.9
13:05 1019 30.09 848 25.04 2.3 36.2 52 -6.5 20.2
13:10 1019 30.09 848 25.04 3.3 37.9 53 -5.4 22.3
13:15 1019 30.09 848 25.04 3.3 37.9 49 -6.3 20.6
13:20 1019 30.09 848 25.04 3.6 38.5 51 -5.5 22.1
13:25 1019 30.09 848 25.04 2.9 37.3 56 -5.1 22.8
13:30 1019 30.09 848 25.04 2.5 36.5 54 -5.9 21.4
13:35 1019 30.09 848 25.04 3.4 38.1 50 -6.1 21.1
13:40 1018 30.06 848 25.04 3.5 38.3 50 -6 21.2
13:45 1018 30.06 848 25.04 3.6 38.5 50 -5.8 21.6
13:50 1018 30.06 848 25.04 3.5 38.4 49 -6.2 20.9
13:55 1018 30.06 848 25.04 3.3 37.9 49 -6.5 20.4
14:00 1018 30.06 848 25.04 3.3 37.9 51 -5.8 21.5
14:05 1018 30.06 847 25.01 3.5 38.2 49 -6.3 20.6
14:10 1018 30.06 847 25.01 3.4 38.2 49 -6.2 20.9
14:15 1018 30.06 847 25.01 3.7 38.7 50 -5.8 21.5
14:20 1018 30.06 847 25.01 4.1 39.3 48 -6.1 21
14:25 1018 30.06 847 25.01 4.4 40 47 -5.8 21.5
14:30 1018 30.06 847 25.01 4.4 40 46 -6.2 20.8
14:35 1018 30.06 847 25.01 4.6 40.3 46 -6.1 21.1
14:40 1018 30.06 847 25.01 4.4 39.9 47 -5.8 21.5
14:45 1018 30.06 847 25.01 4.3 39.7 47 -5.9 21.3
14:50 1018 30.06 847 25.01 4.3 39.8 49 -5.5 22.2
14:55 1018 30.06 847 25.01 3.9 39 49 -5.8 21.5
15:00 1017 30.03 847 25.01 3.7 38.7 50 -5.9 21.4
15:05 1017 30.03 847 25.01 4 39.2 50 -5.6 22
15:10 1017 30.03 847 25.01 3.9 38.9 48 -6.1 21.1
15:15 1017 30.03 847 25.01 4 39.1 49 -5.9 21.3
15:20 1017 30.03 847 25.01 3.7 38.7 50 -5.8 21.5
15:25 1017 30.03 847 25.01 3.3 38 49 -6.3 20.7
15:30 1017 30.03 847 25.01 3.1 37.6 53 -5.6 22
15:35 1017 30.03 846 24.98 2.6 36.7 54 -5.9 21.4
15:40 1017 30.03 846 24.98 2.4 36.4 54 -6 21.3
15:45 1017 30.03 846 24.98 2.2 35.9 55 -6 21.2
15:50 1017 30.03 846 24.98 2.8 37 51 -6.3 20.6
15:55 1017 30.03 846 24.98 2.7 36.9 53 -5.9 21.4
16:00 1017 30.03 846 24.98 2.2 36 55 -5.9 21.5
16:05 1017 30.03 846 24.98 1.9 35.4 56 -6 21.1
16:10 1017 30.03 846 24.98 1.9 35.3 55 -6.2 20.9
16:15 1017 30.03 846 24.98 2.1 35.7 55 -6 21.2
16:20 1017 30.03 846 24.98 2.1 35.7 56 -5.8 21.5
16:25 1017 30.03 846 24.98 1.6 34.8 59 -5.7 21.7
16:30 1017 30.03 846 24.98 1.4 34.5 59 -5.8 21.5
16:35 1017 30.03 846 24.98 1.3 34.4 59 -5.7 21.7
16:40 1017 30.03 846 24.98 1.2 34.1 60 -5.8 21.6
16:45 1017 30.03 846 24.98 1 33.7 61 -5.7 21.7
16:50 1017 30.03 846 24.98 0.7 33.2 62 -5.8 21.6
16:55 1017 30.03 846 24.98 0.3 32.5 63 -5.9 21.4
17:00 1017 30.03 846 24.98 0 32.1 66 -5.7 21.8
17:05 1017 30.03 846 24.98 -0.6 30.9 69 -5.7 21.8
17:10 1017 30.03 846 24.98 -1.2 29.8 70 -6 21.2
17:15 1017 30.03 846 24.98 -1.5 29.3 70 -6.3 20.7
17:20 1017 30.03 846 24.98 -1.4 29.5 68 -6.5 20.3
17:25 1017 30.03 846 24.98 -1.3 29.7 68 -6.5 20.3
17:30 1017 30.03 846 24.98 -1.3 29.6 67 -6.6 20.1
17:35 1017 30.03 846 24.98 -1.5 29.3 69 -6.4 20.5
17:40 1017 30.03 846 24.98 -2 28.5 71 -6.6 20.1
17:45 1017 30.03 846 24.98 -1.8 28.7 70 -6.7 20
17:50 1017 30.03 846 24.98 -2 28.4 71 -6.6 20.2
17:55 1017 30.03 846 24.98 -2.4 27.7 73 -6.7 20
18:00 1017 30.03 846 24.98 -2.7 27.1 74 -6.8 19.8
18:05 1017 30.03 846 24.98 -2.9 26.8 74 -6.9 19.6
18:10 1017 30.03 846 24.98 -3 26.5 75 -6.9 19.6
18:15 1017 30.03 846 24.98 -3 26.6 75 -6.8 19.7
18:20 1017 30.03 846 24.98 -2.6 27.3 73 -6.8 19.7
18:25 1017 30.03 846 24.98 -2.3 27.8 73 -6.5 20.2
18:30 1017 30.03 846 24.98 -2.4 27.6 73 -6.7 20
18:35 1017 30.03 846 24.98 -2.5 27.5 73 -6.7 19.9
18:40 1017 30.03 846 24.98 -2.5 27.5 73 -6.8 19.8
18:45 1017 30.03 846 24.98 -2.8 27 74 -6.9 19.6
18:50 1017 30.03 846 24.98 -3 26.6 74 -7 19.5
18:55 1017 30.03 846 24.98 -3.1 26.5 74 -7.1 19.3
19:00 1017 30.03 846 24.98 -3 26.7 74 -6.9 19.6
19:05 1017 30.03 846 24.98 -3 26.7 73 -7.2 19.1
19:10 1017 30.03 846 24.98 -2.6 27.3 71 -7.3 18.9
19:15 1017 30.03 846 24.98 -2.7 27.1 69 -7.6 18.4
19:20 1017 30.03 846 24.98 -3 26.5 70 -7.7 18.1
19:25 1017 30.03 846 24.98 -3.3 26.1 70 -8 17.6
19:30 1017 30.03 846 24.98 -3.4 26 69 -8.2 17.3
19:35 1017 30.03 846 24.98 -3.5 25.8 70 -8.1 17.3
19:40 1017 30.03 846 24.98 -3.6 25.5 70 -8.3 17
19:45 1017 30.03 846 24.98 -3.8 25.1 70 -8.5 16.7
19:50 1017 30.03 846 24.98 -4.2 24.4 71 -8.6 16.5
19:55 1017 30.03 846 24.98 -4.1 24.7 71 -8.6 16.5
20:00 1017 30.03 846 24.98 -4.5 23.9 73 -8.7 16.3
20:05 1017 30.03 846 24.98 -5.1 22.8 75 -8.9 16
20:10 1017 30.03 846 24.98 -5.1 22.9 74 -9 15.7
20:15 1017 30.03 846 24.98 -5.1 22.9 73 -9.1 15.6
20:20 1017 30.03 846 24.98 -4.8 23.4 71 -9.2 15.4
20:25 1017 30.03 846 24.98 -4.6 23.6 70 -9.3 15.2
20:30 1017 30.03 846 24.98 -4.6 23.8 70 -9.2 15.4
20:35 1017 30.03 846 24.98 -4.9 23.2 72 -9.2 15.5
20:40 1017 30.03 846 24.98 -5.1 22.8 74 -9.1 15.7
20:45 1017 30.03 846 24.98 -5.3 22.6 73 -9.3 15.3
20:50 1017 30.03 846 24.98 -5 23 70 -9.6 14.7
20:55 1017 30.03 846 24.98 -4.7 23.5 69 -9.5 14.9
21:00 1017 30.03 846 24.98 -4.6 23.7 68 -9.7 14.6
21:05 1017 30.03 846 24.98 -4.3 24.2 67 -9.6 14.7
21:10 1017 30.03 846 24.98 -4.2 24.5 68 -9.3 15.3
21:15 1017 30.03 846 24.98 -4.4 24.1 69 -9.3 15.2
21:20 1017 30.03 846 24.98 -5 23.1 71 -9.5 15
21:25 1017 30.03 846 24.98 -5.4 22.2 71 -10 14.1
21:30 1017 30.03 846 24.98 -5.2 22.6 67 -10.3 13.4
21:35 1017 30.03 846 24.98 -4.5 23.9 68 -9.5 14.8
21:40 1017 30.03 846 24.98 -4 24.7 65 -9.7 14.5
21:45 1017 30.03 846 24.98 -4.6 23.8 67 -9.7 14.5
21:50 1017 30.03 846 24.98 -5.7 21.7 74 -9.6 14.8
21:55 1017 30.03 846 24.98 -5.7 21.7 73 -9.8 14.4
22:00 1017 30.03 846 24.98 -5.5 22.1 76 -9.1 15.5
22:05 1016 30 846 24.98 -5.5 22 77 -9 15.8
22:10 1016 30 846 24.98 -5.2 22.6 74 -9.1 15.7
22:15 1017 30.03 846 24.98 -4.8 23.3 75 -8.6 16.6
22:20 1017 30.03 846 24.98 -4.8 23.3 76 -8.4 16.9
22:25 1017 30.03 846 24.98 -4.8 23.4 77 -8.3 17.1
22:30 1017 30.03 846 24.98 -4.7 23.6 77 -8 17.5
22:35 1017 30.03 846 24.98 -4.5 23.8 76 -8.2 17.3
22:40 1017 30.03 846 24.98 -4.8 23.4 76 -8.4 17
22:45 1017 30.03 846 24.98 -5.1 22.9 77 -8.5 16.7
22:50 1017 30.03 846 24.98 -5.2 22.7 76 -8.7 16.3
22:55 1017 30.03 846 24.98 -5.2 22.7 76 -8.7 16.3
23:00 1017 30.03 846 24.98 -5 23 76 -8.6 16.5
23:05 1017 30.03 846 24.98 -4.9 23.2 77 -8.3 17.1
23:10 1017 30.03 846 24.98 -4.5 23.8 76 -8.1 17.4
23:15 1017 30.03 846 24.98 -4.3 24.2 75 -8 17.5
23:20 1017 30.03 846 24.98 -4.1 24.5 75 -7.9 17.7
23:25 1017 30.03 846 24.98 -3.9 25 74 -7.9 17.8
23:30 1017 30.03 846 24.98 -3.7 25.3 73 -7.9 17.8
23:35 1017 30.03 846 24.98 -3.6 25.5 70 -8.3 17
23:40 1017 30.03 846 24.98 -3.7 25.4 70 -8.4 16.9
23:45 1017 30.03 846 24.98 -3.8 25.1 71 -8.4 16.9
23:50 1017 30.03 846 24.98 -3.9 25 72 -8.3 17.1
23:55 1017 30.03 847 25.01 -3.9 25 72 -8.2 17.2
24:00 1017 30.03 847 25.01 -3.8 25.2 70 -8.5 16.7